createdAt,value
2019-02-02T00:00:54.989Z,20.50
2019-02-02T00:03:25.302Z,20.13
2019-02-02T00:05:55.511Z,19.03
2019-02-02T00:08:25.688Z,17.13
2019-02-02T00:10:56.004Z,20.03
2019-02-02T00:13:26.258Z,14.67
2019-02-02T00:15:56.471Z,18.33
2019-02-02T00:18:26.776Z,19.97
2019-02-02T00:20:56.982Z,19.23
2019-02-02T00:23:27.305Z,22.73
2019-02-02T00:25:57.491Z,22.93
2019-02-02T00:28:27.999Z,20.83
2019-02-02T00:30:58.244Z,28.40
2019-02-02T00:33:28.438Z,17.23
2019-02-02T00:35:58.704Z,19.80
2019-02-02T00:38:28.980Z,18.47
2019-02-02T00:40:59.221Z,18.57
2019-02-02T00:43:29.428Z,19.27
2019-02-02T00:45:59.678Z,15.57
2019-02-02T00:48:29.973Z,17.20
2019-02-02T00:51:00.249Z,15.83
2019-02-02T00:53:30.399Z,17.17
2019-02-02T00:56:00.664Z,15.80
2019-02-02T00:58:31.184Z,17.43
2019-02-02T01:01:01.402Z,17.33
2019-02-02T01:03:31.819Z,16.03
2019-02-02T01:06:04.859Z,15.17
2019-02-02T01:08:33.851Z,15.10
2019-02-02T01:11:04.202Z,19.97
2019-02-02T01:13:34.490Z,16.17
2019-02-02T01:16:05.707Z,15.77
2019-02-02T01:18:36.072Z,12.50
2019-02-02T01:21:06.438Z,22.83
2019-02-02T01:23:36.756Z,15.07
2019-02-02T01:26:06.953Z,15.97
2019-02-02T01:28:37.239Z,15.03
2019-02-02T01:31:07.384Z,14.10
2019-02-02T01:33:37.942Z,17.83
2019-02-02T01:36:08.277Z,16.67
2019-02-02T01:38:38.511Z,16.53
2019-02-02T01:41:08.665Z,19.57
2019-02-02T01:43:38.976Z,17.30
2019-02-02T01:46:09.204Z,21.07
2019-02-02T01:48:39.398Z,18.90
2019-02-02T01:51:09.958Z,16.30
2019-02-02T01:53:40.195Z,16.23
2019-02-02T01:56:11.128Z,15.87
2019-02-02T01:58:41.337Z,14.30
2019-02-02T02:01:11.653Z,18.30
2019-02-02T02:03:41.926Z,18.90
2019-02-02T02:06:12.152Z,18.20
2019-02-02T02:08:42.419Z,17.47
2019-02-02T02:11:12.766Z,15.13
2019-02-02T02:13:43.021Z,14.47
2019-02-02T02:16:13.230Z,15.40
2019-02-02T02:18:43.404Z,14.20
2019-02-02T02:21:13.647Z,13.63
2019-02-02T02:23:43.888Z,18.80
2019-02-02T02:26:14.059Z,22.57
2019-02-02T02:28:44.316Z,17.13
2019-02-02T02:31:14.607Z,18.33
2019-02-02T02:33:44.864Z,18.63
2019-02-02T02:36:15.167Z,13.90
2019-02-02T02:38:45.431Z,21.27
2019-02-02T02:41:15.692Z,21.50
2019-02-02T02:43:45.904Z,20.03
2019-02-02T02:46:16.198Z,22.67
2019-02-02T02:48:46.426Z,17.70
2019-02-02T02:51:16.965Z,17.63
2019-02-02T02:53:47.146Z,21.77
2019-02-02T02:56:17.502Z,20.00
2019-02-02T02:58:47.666Z,17.53
2019-02-02T03:01:17.951Z,18.93
2019-02-02T03:03:48.075Z,17.53
2019-02-02T03:06:18.265Z,20.67
2019-02-02T03:08:48.573Z,15.50
2019-02-02T03:11:18.784Z,15.43
2019-02-02T03:13:49.062Z,22.67
2019-02-02T03:16:19.395Z,20.27
2019-02-02T03:18:49.718Z,17.50
2019-02-02T03:21:19.967Z,15.90
2019-02-02T03:23:50.401Z,13.53
2019-02-02T03:26:20.660Z,17.73
2019-02-02T03:28:53.549Z,15.23
2019-02-02T03:31:22.852Z,15.90
2019-02-02T03:33:53.211Z,15.47
2019-02-02T03:36:23.756Z,15.83
2019-02-02T03:38:54.085Z,20.77
2019-02-02T03:41:24.372Z,15.43
2019-02-02T03:43:54.631Z,15.97
2019-02-02T03:46:24.827Z,20.07
2019-02-02T03:48:55.006Z,18.17
2019-02-02T03:51:25.384Z,17.97
2019-02-02T03:54:07.916Z,15.10
2019-02-02T03:56:27.773Z,17.43
2019-02-02T03:59:05.943Z,19.20
2019-02-02T04:01:30.307Z,16.87
2019-02-02T04:04:00.565Z,12.23
2019-02-02T04:06:30.755Z,19.53
2019-02-02T04:09:00.962Z,15.90
2019-02-02T04:11:32.951Z,14.87
2019-02-02T04:14:04.242Z,20.87
2019-02-02T04:16:34.691Z,17.73
2019-02-02T04:19:05.283Z,17.10
2019-02-02T04:21:36.297Z,15.70
2019-02-02T04:24:06.707Z,18.10
2019-02-02T04:26:36.916Z,18.47
2019-02-02T04:29:17.341Z,19.97
2019-02-02T04:31:39.119Z,18.20
2019-02-02T04:34:09.310Z,17.00
2019-02-02T04:36:40.756Z,16.53
2019-02-02T04:39:11.008Z,20.67
2019-02-02T04:41:41.361Z,15.37
2019-02-02T04:44:11.506Z,14.87
2019-02-02T04:46:41.854Z,17.27
2019-02-02T04:49:12.091Z,19.60
2019-02-02T04:51:42.369Z,18.53
2019-02-02T04:54:12.586Z,18.23
2019-02-02T04:56:42.821Z,18.77
2019-02-02T04:59:13.063Z,19.53
2019-02-02T05:01:43.283Z,23.57
2019-02-02T05:04:13.534Z,17.70
2019-02-02T05:06:43.762Z,19.33
2019-02-02T05:09:14.007Z,17.50
2019-02-02T05:11:44.127Z,15.23
2019-02-02T05:14:14.265Z,19.47
2019-02-02T05:16:44.512Z,19.57
2019-02-02T05:19:14.718Z,17.60
2019-02-02T05:21:44.958Z,17.63
2019-02-02T05:24:15.163Z,21.13
2019-02-02T05:26:45.280Z,17.17
2019-02-02T05:29:15.482Z,23.10
2019-02-02T05:31:45.713Z,19.37
2019-02-02T05:34:15.947Z,25.57
2019-02-02T05:36:46.199Z,22.40
2019-02-02T05:39:16.352Z,17.87
2019-02-02T05:41:46.574Z,20.37
2019-02-02T05:44:16.877Z,19.73
2019-02-02T05:46:47.016Z,22.00
2019-02-02T05:49:17.142Z,20.23
2019-02-02T05:51:47.408Z,19.00
2019-02-02T05:54:17.602Z,21.53
2019-02-02T05:56:47.799Z,18.63
2019-02-02T05:59:18.052Z,21.07
2019-02-02T06:01:48.287Z,21.53
2019-02-02T06:04:18.507Z,19.27
2019-02-02T06:06:48.611Z,21.87
2019-02-02T06:09:18.800Z,20.77
2019-02-02T06:11:48.866Z,22.40
2019-02-02T06:14:19.079Z,26.17
2019-02-02T06:16:49.392Z,26.87
2019-02-02T06:19:19.499Z,21.43
2019-02-02T06:21:49.706Z,22.10
2019-02-02T06:24:19.845Z,24.43
2019-02-02T06:26:49.982Z,20.77
2019-02-02T06:29:20.224Z,23.73
2019-02-02T06:31:50.306Z,22.00
2019-02-02T06:34:20.563Z,21.30
2019-02-02T06:36:50.770Z,23.47
2019-02-02T06:39:20.947Z,21.70
2019-02-02T06:41:51.335Z,23.93
2019-02-02T06:44:21.382Z,21.20
2019-02-02T06:46:51.597Z,23.23
2019-02-02T06:49:22.099Z,20.53
2019-02-02T06:51:52.276Z,18.77
2019-02-02T06:54:22.513Z,19.77
2019-02-02T06:56:52.773Z,18.47
2019-02-02T06:59:22.967Z,20.03
2019-02-02T07:01:53.197Z,22.73
2019-02-02T07:04:23.555Z,22.37
2019-02-02T07:06:53.754Z,20.07
2019-02-02T07:09:24.127Z,24.03
2019-02-02T07:11:54.291Z,21.37
2019-02-02T07:14:24.412Z,28.13
2019-02-02T07:16:54.676Z,22.10
2019-02-02T07:19:24.867Z,29.40
2019-02-02T07:21:55.103Z,22.60
2019-02-02T07:24:25.228Z,23.07
2019-02-02T07:26:55.700Z,21.77
2019-02-02T07:29:25.810Z,23.83
2019-02-02T07:31:56.007Z,21.00
2019-02-02T07:34:26.224Z,30.10
2019-02-02T07:36:56.402Z,24.50
2019-02-02T07:39:26.594Z,21.60
2019-02-02T07:41:56.707Z,23.63
2019-02-02T07:44:26.872Z,21.10
2019-02-02T07:46:56.938Z,21.37
2019-02-02T07:49:27.108Z,23.60
2019-02-02T07:51:57.507Z,25.80
2019-02-02T07:54:27.694Z,22.40
2019-02-02T07:56:57.848Z,19.20
2019-02-02T07:59:28.078Z,24.53
2019-02-02T08:01:58.594Z,25.03
2019-02-02T08:04:28.627Z,25.40
2019-02-02T08:06:58.762Z,23.80
2019-02-02T08:09:28.943Z,24.70
2019-02-02T08:11:59.082Z,24.63
2019-02-02T08:14:29.193Z,24.07
2019-02-02T08:16:59.752Z,24.27
2019-02-02T08:19:29.958Z,22.20
2019-02-02T08:22:00.218Z,23.63
2019-02-02T08:24:30.418Z,24.87
2019-02-02T08:27:00.539Z,25.80
2019-02-02T08:29:30.747Z,24.63
2019-02-02T08:32:00.987Z,24.63
2019-02-02T08:34:31.075Z,26.83
2019-02-02T08:37:01.342Z,25.10
2019-02-02T08:39:31.599Z,26.23
2019-02-02T08:42:01.727Z,28.10
2019-02-02T08:44:31.959Z,28.13
2019-02-02T08:47:02.083Z,29.23
2019-02-02T08:49:32.231Z,30.20
2019-02-02T08:52:02.550Z,24.43
2019-02-02T08:54:32.756Z,29.17
2019-02-02T08:57:03.057Z,29.33
2019-02-02T08:59:33.284Z,29.27
2019-02-02T09:02:03.460Z,28.07
2019-02-02T09:04:33.998Z,30.10
2019-02-02T09:07:05.162Z,28.77
2019-02-02T09:09:35.705Z,28.80
2019-02-02T09:12:05.959Z,29.73
2019-02-02T09:14:36.170Z,28.73
2019-02-02T09:17:06.386Z,31.87
2019-02-02T09:19:36.594Z,29.77
2019-02-02T09:22:06.763Z,28.83
2019-02-02T09:24:36.974Z,30.53
2019-02-02T09:27:07.215Z,32.60
2019-02-02T09:29:37.695Z,29.03
2019-02-02T09:32:08.189Z,28.70
2019-02-02T09:34:38.384Z,30.57
2019-02-02T09:37:08.590Z,29.97
2019-02-02T09:39:38.805Z,28.60
2019-02-02T09:42:09.029Z,30.60
2019-02-02T09:44:39.267Z,31.87
2019-02-02T09:47:09.650Z,29.20
2019-02-02T09:49:40.102Z,28.13
2019-02-02T09:52:10.315Z,28.50
2019-02-02T09:54:40.488Z,26.90
2019-02-02T09:57:10.698Z,27.83
2019-02-02T09:59:40.863Z,25.97
2019-02-02T10:02:11.095Z,30.13
2019-02-02T10:04:41.309Z,28.20
2019-02-02T10:07:11.454Z,31.23
2019-02-02T10:09:41.662Z,31.20
2019-02-02T10:12:11.771Z,32.47
2019-02-02T10:14:42.023Z,31.20
2019-02-02T10:17:12.319Z,35.23
2019-02-02T10:19:42.435Z,33.77
2019-02-02T10:22:12.605Z,36.03
2019-02-02T10:24:43.105Z,36.00
2019-02-02T10:27:13.318Z,32.40
2019-02-02T10:29:43.494Z,34.57
2019-02-02T10:32:13.723Z,36.40
2019-02-02T10:34:43.890Z,33.50
2019-02-02T10:37:14.045Z,34.53
2019-02-02T10:39:44.187Z,31.23
2019-02-02T10:42:14.330Z,36.37
2019-02-02T10:44:44.495Z,31.07
2019-02-02T10:47:14.597Z,29.97
2019-02-02T10:49:44.722Z,30.00
2019-02-02T10:52:14.819Z,32.70
2019-02-02T10:54:44.927Z,32.73
2019-02-02T10:57:15.449Z,27.73
2019-02-02T10:59:45.675Z,30.73
2019-02-02T11:02:17.859Z,26.77
2019-02-02T11:04:48.149Z,30.70
2019-02-02T11:07:18.428Z,29.33
2019-02-02T11:09:48.736Z,30.97
2019-02-02T11:12:18.930Z,27.40
2019-02-02T11:14:49.117Z,29.10
2019-02-02T11:17:19.627Z,25.47
2019-02-02T11:19:49.968Z,23.63
2019-02-02T11:22:20.245Z,21.50
2019-02-02T11:24:50.478Z,22.87
2019-02-02T11:27:20.903Z,22.23
2019-02-02T11:29:51.180Z,23.53
2019-02-02T11:32:21.420Z,23.93
2019-02-02T11:34:51.624Z,27.07
2019-02-02T11:37:21.795Z,25.23
2019-02-02T11:39:51.941Z,26.73
2019-02-02T11:42:22.110Z,26.23
2019-02-02T11:44:52.359Z,23.57
2019-02-02T11:47:22.471Z,25.03
2019-02-02T11:49:52.841Z,29.13
2019-02-02T11:52:23.407Z,26.63
2019-02-02T11:54:53.654Z,27.03
2019-02-02T11:57:23.779Z,27.73
2019-02-02T11:59:54.011Z,32.27
2019-02-02T12:02:24.160Z,30.27
2019-02-02T12:04:54.370Z,30.20
2019-02-02T12:07:24.591Z,33.20
2019-02-02T12:09:54.709Z,27.73
2019-02-02T12:12:24.938Z,28.20
2019-02-02T12:14:56.991Z,34.80
2019-02-02T12:17:27.281Z,27.60
2019-02-02T12:19:57.519Z,29.47
2019-02-02T12:22:28.668Z,35.10
2019-02-02T12:25:01.681Z,34.80
2019-02-02T12:27:31.120Z,35.47
2019-02-02T12:30:01.607Z,32.70
2019-02-02T12:32:33.499Z,33.90
2019-02-02T12:35:04.725Z,35.57
2019-02-02T12:37:35.065Z,36.20
2019-02-02T12:40:06.508Z,36.93
2019-02-02T12:42:36.675Z,36.63
2019-02-02T12:45:09.694Z,37.27
2019-02-02T12:47:39.926Z,40.63
2019-02-02T12:50:10.995Z,40.33
2019-02-02T12:52:41.139Z,34.70
2019-02-02T12:55:11.298Z,38.23
2019-02-02T12:57:41.409Z,39.93
2019-02-02T13:00:14.684Z,36.93
2019-02-02T13:02:45.242Z,42.87
2019-02-02T13:05:16.686Z,39.67
2019-02-02T13:07:46.998Z,47.80
2019-02-02T13:10:24.426Z,44.63
2019-02-02T13:12:53.959Z,43.90
2019-02-02T13:15:24.135Z,47.07
2019-02-02T13:17:54.389Z,42.07
2019-02-02T13:20:24.806Z,44.50
2019-02-02T13:22:55.304Z,44.77
2019-02-02T13:25:25.567Z,45.83
2019-02-02T13:27:56.240Z,48.40
2019-02-02T13:30:28.877Z,45.47
2019-02-02T13:32:59.050Z,44.07
2019-02-02T13:35:30.063Z,42.93
2019-02-02T13:38:00.305Z,43.80
2019-02-02T13:40:30.736Z,44.63
2019-02-02T13:43:00.934Z,45.00
2019-02-02T13:45:31.561Z,47.30
2019-02-02T13:48:01.697Z,43.53
2019-02-02T13:50:31.971Z,46.50
2019-02-02T13:53:02.280Z,44.77
2019-02-02T13:55:32.559Z,47.03
2019-02-02T13:58:02.857Z,47.13
2019-02-02T14:00:33.170Z,41.93
2019-02-02T14:03:03.955Z,43.60
2019-02-02T14:05:34.489Z,42.47
2019-02-02T14:08:05.121Z,41.93
2019-02-02T14:10:35.758Z,47.57
2019-02-02T14:13:05.978Z,48.77
2019-02-02T14:15:39.196Z,53.53
2019-02-02T14:18:08.256Z,45.23
2019-02-02T14:20:38.406Z,45.40
2019-02-02T14:23:08.607Z,45.27
2019-02-02T14:25:38.799Z,47.80
2019-02-02T14:28:09.104Z,44.70
2019-02-02T14:30:39.394Z,45.13
2019-02-02T14:33:14.168Z,44.83
2019-02-02T14:35:41.663Z,45.43
2019-02-02T14:38:11.936Z,45.10
2019-02-02T14:40:42.104Z,45.77
2019-02-02T14:43:12.598Z,45.87
2019-02-02T14:45:42.804Z,51.93
2019-02-02T14:48:13.041Z,58.27
2019-02-02T14:50:43.258Z,53.90
2019-02-02T14:53:16.418Z,51.03
2019-02-02T14:55:46.017Z,47.77
2019-02-02T14:58:16.431Z,51.73
2019-02-02T15:00:46.666Z,46.23
2019-02-02T15:03:25.542Z,51.27
2019-02-02T15:05:48.529Z,54.30
2019-02-02T15:08:18.811Z,51.13
2019-02-02T15:10:48.999Z,51.17
2019-02-02T15:13:19.251Z,47.33
2019-02-02T15:15:49.430Z,49.63
2019-02-02T15:18:19.602Z,50.07
2019-02-02T15:20:49.910Z,56.10
2019-02-02T15:23:20.034Z,50.33
2019-02-02T15:25:50.166Z,54.33
2019-02-02T15:28:20.291Z,52.57
2019-02-02T15:30:50.813Z,48.97
2019-02-02T15:33:21.023Z,54.07
2019-02-02T15:35:51.267Z,50.43
2019-02-02T15:38:21.445Z,53.20
2019-02-02T15:40:58.838Z,52.77
2019-02-02T15:43:23.491Z,51.20
2019-02-02T15:45:53.711Z,51.97
2019-02-02T15:48:24.489Z,55.73
2019-02-02T15:50:54.714Z,53.73
2019-02-02T15:53:24.888Z,53.13
2019-02-02T15:55:55.183Z,50.53
2019-02-02T15:58:25.324Z,59.10
2019-02-02T16:00:55.581Z,62.80
2019-02-02T16:03:26.459Z,57.53
2019-02-02T16:05:56.671Z,55.00
2019-02-02T16:08:26.847Z,51.73
2019-02-02T16:10:56.990Z,53.27
2019-02-02T16:13:27.167Z,58.70
2019-02-02T16:15:57.459Z,55.67
2019-02-02T16:18:27.931Z,55.33
2019-02-02T16:20:58.082Z,55.97
2019-02-02T16:23:28.631Z,59.73
2019-02-02T16:25:58.888Z,54.30
2019-02-02T16:28:29.054Z,54.10
2019-02-02T16:30:59.426Z,61.70
2019-02-02T16:33:33.325Z,59.33
2019-02-02T16:36:03.374Z,56.50
2019-02-02T16:38:33.602Z,57.70
2019-02-02T16:41:03.857Z,58.67
2019-02-02T16:43:34.421Z,52.00
2019-02-02T16:46:06.203Z,51.93
2019-02-02T16:48:36.448Z,55.03
2019-02-02T16:51:06.763Z,62.43
2019-02-02T16:53:36.913Z,52.33
2019-02-02T16:56:09.087Z,51.97
2019-02-02T16:58:39.367Z,54.63
2019-02-02T17:01:09.634Z,53.17
2019-02-02T17:03:39.917Z,53.47
2019-02-02T17:06:11.474Z,51.57
2019-02-02T17:08:41.755Z,50.57
2019-02-02T17:11:11.931Z,54.73
2019-02-02T17:13:42.088Z,53.00
2019-02-02T17:16:12.719Z,57.80
2019-02-02T17:18:42.890Z,51.00
2019-02-02T17:21:13.119Z,49.93
2019-02-02T17:23:43.275Z,48.77
2019-02-02T17:26:13.536Z,48.00
2019-02-02T17:28:43.930Z,56.37
2019-02-02T17:31:14.347Z,51.73
2019-02-02T17:33:44.559Z,51.97
2019-02-02T17:36:14.862Z,52.23
2019-02-02T17:38:45.408Z,49.63
2019-02-02T17:41:15.659Z,52.87
2019-02-02T17:43:45.939Z,53.03
2019-02-02T17:46:16.107Z,51.50
2019-02-02T17:48:46.732Z,54.23
2019-02-02T17:51:16.962Z,55.40
2019-02-02T17:53:47.111Z,54.37
2019-02-02T17:56:17.393Z,56.67
2019-02-02T17:58:47.599Z,53.80
2019-02-02T18:01:17.882Z,50.33
2019-02-02T18:03:48.146Z,51.50
2019-02-02T18:06:18.419Z,55.63
2019-02-02T18:08:48.531Z,55.60
2019-02-02T18:11:18.699Z,56.53
2019-02-02T18:13:48.958Z,55.73
2019-02-02T18:16:19.255Z,56.40
2019-02-02T18:18:49.462Z,55.07
2019-02-02T18:21:19.746Z,56.73
2019-02-02T18:23:49.882Z,57.50
2019-02-02T18:26:20.031Z,54.43
2019-02-02T18:28:53.828Z,62.03
2019-02-02T18:31:23.090Z,61.57
2019-02-02T18:33:53.304Z,55.47
2019-02-02T18:36:23.543Z,51.13
2019-02-02T18:38:53.830Z,51.73
2019-02-02T18:41:24.042Z,54.17
2019-02-02T18:43:54.174Z,54.93
2019-02-02T18:46:25.385Z,58.47
2019-02-02T18:48:55.494Z,54.67
2019-02-02T18:51:25.999Z,52.03
2019-02-02T18:53:56.182Z,57.20
2019-02-02T18:56:26.298Z,54.03
2019-02-02T18:58:56.580Z,56.00
2019-02-02T19:01:26.793Z,55.73
2019-02-02T19:03:57.013Z,54.03
2019-02-02T19:06:27.499Z,56.23
2019-02-02T19:08:58.790Z,57.73
2019-02-02T19:11:28.906Z,53.87
2019-02-02T19:13:59.150Z,51.33
2019-02-02T19:16:29.351Z,51.70
2019-02-02T19:18:59.920Z,53.60
2019-02-02T19:21:30.428Z,50.60
2019-02-02T19:24:00.664Z,51.20
2019-02-02T19:26:30.853Z,50.73
2019-02-02T19:29:01.031Z,48.00
2019-02-02T19:31:31.066Z,44.67
2019-02-02T19:34:01.349Z,44.50
2019-02-02T19:36:31.491Z,46.67
2019-02-02T19:39:01.775Z,43.37
2019-02-02T19:41:33.631Z,44.00
2019-02-02T19:44:03.927Z,45.20
2019-02-02T19:46:34.140Z,42.80
2019-02-02T19:49:04.660Z,44.63
2019-02-02T19:51:35.026Z,38.63
2019-02-02T19:54:07.550Z,43.53
2019-02-02T19:56:37.551Z,42.67
2019-02-02T19:59:07.666Z,44.00
2019-02-02T20:01:37.846Z,42.90
2019-02-02T20:04:08.101Z,44.47
2019-02-02T20:06:38.297Z,47.50
2019-02-02T20:09:09.563Z,45.00
2019-02-02T20:11:39.838Z,45.60
2019-02-02T20:14:10.129Z,40.03
2019-02-02T20:16:40.357Z,42.73
2019-02-02T20:19:10.540Z,42.10
2019-02-02T20:21:40.767Z,38.87
2019-02-02T20:24:10.973Z,46.03
2019-02-02T20:26:41.187Z,45.23
2019-02-02T20:29:11.331Z,40.33
2019-02-02T20:31:41.510Z,43.50
2019-02-02T20:34:11.745Z,46.53
2019-02-02T20:36:41.928Z,49.50
2019-02-02T20:39:12.394Z,46.93
2019-02-02T20:41:42.899Z,44.63
2019-02-02T20:44:13.137Z,44.90
2019-02-02T20:46:43.199Z,45.63
2019-02-02T20:49:13.525Z,42.23
2019-02-02T20:51:43.770Z,38.57
2019-02-02T20:54:14.230Z,41.13
2019-02-02T20:56:44.942Z,44.80
2019-02-02T20:59:15.069Z,43.70
2019-02-02T21:01:45.447Z,51.07
2019-02-02T21:04:15.574Z,42.63
2019-02-02T21:06:45.758Z,46.40
2019-02-02T21:09:16.167Z,49.90
2019-02-02T21:11:56.590Z,46.93
2019-02-02T21:14:18.335Z,47.90
2019-02-02T21:16:48.872Z,50.97
2019-02-02T21:19:19.353Z,52.17
2019-02-02T21:21:49.536Z,54.90
2019-02-02T21:24:19.834Z,52.63
2019-02-02T21:26:50.134Z,52.07
2019-02-02T21:29:20.275Z,56.63
2019-02-02T21:31:50.844Z,51.93
2019-02-02T21:34:21.015Z,55.60
2019-02-02T21:36:51.148Z,52.70
2019-02-02T21:39:21.293Z,59.00
2019-02-02T21:41:51.713Z,57.40
2019-02-02T21:44:22.258Z,60.37
2019-02-02T21:46:52.360Z,59.60
2019-02-02T21:49:22.502Z,60.43
2019-02-02T21:51:52.638Z,57.90
2019-02-02T21:54:25.711Z,58.63
2019-02-02T21:56:54.615Z,57.43
2019-02-02T21:59:24.717Z,57.80
2019-02-02T22:01:55.939Z,60.10
2019-02-02T22:04:26.076Z,57.10
2019-02-02T22:06:56.798Z,55.07
2019-02-02T22:09:27.092Z,56.80
2019-02-02T22:11:57.380Z,49.37
2019-02-02T22:14:27.651Z,57.07
2019-02-02T22:16:57.778Z,60.67
2019-02-02T22:19:28.022Z,52.27
2019-02-02T22:21:58.217Z,52.73
2019-02-02T22:24:28.356Z,55.77
2019-02-02T22:26:58.574Z,60.93
2019-02-02T22:29:28.989Z,67.80
2019-02-02T22:31:59.107Z,64.00
2019-02-02T22:34:29.299Z,68.43
2019-02-02T22:36:59.550Z,66.33
2019-02-02T22:39:29.815Z,60.60
2019-02-02T22:42:00.147Z,60.90
2019-02-02T22:44:30.387Z,61.10
2019-02-02T22:47:00.677Z,58.80
2019-02-02T22:49:30.940Z,61.40
2019-02-02T22:52:03.156Z,63.67
2019-02-02T22:54:33.472Z,58.23
2019-02-02T22:57:03.703Z,55.23
2019-02-02T22:59:34.251Z,65.13
2019-02-02T23:02:10.526Z,65.07
2019-02-02T23:05:21.338Z,62.43
2019-02-02T23:08:14.341Z,63.90
2019-02-02T23:11:22.207Z,62.07
2019-02-02T23:14:48.347Z,60.93
2019-02-02T23:17:18.834Z,66.37
2019-02-02T23:19:49.112Z,61.13
2019-02-02T23:22:19.865Z,63.77
2019-02-02T23:24:50.071Z,58.33
2019-02-02T23:27:20.676Z,62.77
2019-02-02T23:29:51.296Z,57.73
2019-02-02T23:32:21.546Z,55.63
2019-02-02T23:34:52.008Z,59.60
2019-02-02T23:37:22.370Z,59.83
2019-02-02T23:39:52.543Z,55.90
2019-02-02T23:42:22.663Z,56.10
2019-02-02T23:44:52.945Z,61.90
2019-02-02T23:47:23.500Z,58.73
2019-02-02T23:49:53.759Z,58.50
2019-02-02T23:52:23.954Z,58.47
2019-02-02T23:54:54.291Z,57.57
2019-02-02T23:57:24.564Z,59.97
2019-02-02T23:59:55.104Z,64.83
